Time;durP1;ratioP1;P1;durP2;ratioP2;P2;SDS_P1;SDS_P2;PMS_P1;PMS_P2;Temp;Humidity;BMP_temperature;BMP_pressure;BME280_temperature;BME280_humidity;BME280_pressure;Samples;Min_cycle;Max_cycle;Signal;HPM_P1;HPM_P2
2022/03/13 00:02:13;;;;;;;11.77;8.60;;;;;;;10.23;100.00;101427.75;5266022;28;20060;-78
2022/03/13 00:04:49;;;;;;;11.95;8.00;;;;;;;10.21;100.00;101421.72;5275945;28;20036;-78
2022/03/13 00:07:24;;;;;;;12.25;8.43;;;;;;;10.21;100.00;101424.38;5274987;28;20017;-78
2022/03/13 00:09:55;;;;;;;8.85;7.35;;;;;;;10.20;100.00;101430.69;5284514;28;20386;-78
2022/03/13 00:12:27;;;;;;;8.65;7.57;;;;;;;10.20;100.00;101429.84;5283591;28;20029;-78
2022/03/13 00:15:03;;;;;;;9.85;7.68;;;;;;;10.15;100.00;101410.69;5283778;28;20033;-79
2022/03/13 00:17:35;;;;;;;11.13;8.40;;;;;;;10.15;100.00;101408.03;5281097;28;20041;-78
2022/03/13 00:20:08;;;;;;;8.73;7.03;;;;;;;10.19;100.00;101417.50;5283372;28;20044;-78
2022/03/13 00:22:39;;;;;;;10.57;8.20;;;;;;;10.17;100.00;101417.63;5282700;28;20065;-79
2022/03/13 00:25:10;;;;;;;10.75;7.50;;;;;;;10.15;100.00;101414.22;5282443;28;20489;-79
2022/03/13 00:27:43;;;;;;;9.93;7.60;;;;;;;10.16;100.00;101404.41;5282230;28;20029;-78
2022/03/13 00:30:16;;;;;;;10.90;8.10;;;;;;;10.16;100.00;101409.75;5280860;28;20339;-78
2022/03/13 00:32:48;;;;;;;11.15;8.38;;;;;;;10.14;100.00;101409.03;5283427;28;20029;-78
2022/03/13 00:35:20;;;;;;;10.95;7.70;;;;;;;10.16;100.00;101401.75;5264277;28;20021;-79
2022/03/13 00:37:51;;;;;;;11.52;8.73;;;;;;;10.14;100.00;101393.03;5281896;28;20159;-78
2022/03/13 00:40:23;;;;;;;11.88;8.35;;;;;;;10.13;100.00;101392.19;5282444;28;20033;-78
2022/03/13 00:42:54;;;;;;;10.55;7.90;;;;;;;10.12;100.00;101392.31;5280230;28;20041;-78
2022/03/13 00:45:27;;;;;;;11.45;8.10;;;;;;;10.05;100.00;101383.97;5279507;28;20074;-78
2022/03/13 00:47:58;;;;;;;10.00;7.82;;;;;;;10.02;100.00;101390.38;5281975;28;20409;-79
2022/03/13 00:50:29;;;;;;;10.45;7.78;;;;;;;9.98;100.00;101393.44;5282597;28;20052;-79
2022/03/13 00:53:01;;;;;;;11.60;7.57;;;;;;;9.92;100.00;101401.91;5282331;28;20025;-78
2022/03/13 00:55:33;;;;;;;9.75;7.07;;;;;;;9.83;100.00;101387.53;5281494;28;20064;-79
2022/03/13 00:58:05;;;;;;;9.70;7.95;;;;;;;9.83;100.00;101384.88;5281586;28;20071;-78
2022/03/13 01:00:36;;;;;;;9.15;7.80;;;;;;;9.77;100.00;101383.53;5283170;28;20024;-78
2022/03/13 01:03:28;;;;;;;9.52;7.47;;;;;;;9.79;100.00;101380.75;5280842;28;20030;-78
2022/03/13 01:06:00;;;;;;;10.80;7.72;;;;;;;9.80;100.00;101379.78;5281831;28;20104;-78
2022/03/13 01:08:31;;;;;;;9.82;7.70;;;;;;;9.79;100.00;101384.25;5281874;28;20108;-78
2022/03/13 01:11:04;;;;;;;9.32;7.70;;;;;;;9.78;100.00;101373.72;5282656;28;20025;-78
2022/03/13 01:13:35;;;;;;;8.48;7.25;;;;;;;9.73;100.00;101381.25;5282060;28;20052;-78
2022/03/13 01:16:25;;;;;;;10.00;7.93;;;;;;;9.65;100.00;101374.72;5281298;28;20025;-79
2022/03/13 01:18:58;;;;;;;10.80;7.78;;;;;;;9.49;100.00;101352.97;5279822;28;20409;-78
2022/03/13 01:21:33;;;;;;;12.75;8.35;;;;;;;9.45;100.00;101360.34;5264205;28;20032;-78
2022/03/13 01:24:07;;;;;;;12.13;7.88;;;;;;;9.40;100.00;101359.03;5281924;28;20485;-78
2022/03/13 01:26:39;;;;;;;10.68;7.82;;;;;;;9.30;100.00;101347.41;5279906;28;20500;-79
2022/03/13 01:29:13;;;;;;;10.30;7.95;;;;;;;9.24;100.00;101344.28;5282808;28;20100;-78
2022/03/13 01:31:46;;;;;;;8.38;7.30;;;;;;;9.23;100.00;101345.22;5280108;28;20035;-78
2022/03/13 01:34:32;;;;;;;10.55;7.97;;;;;;;9.17;100.00;101348.38;5281184;28;20025;-79
2022/03/13 01:37:07;;;;;;;10.35;7.72;;;;;;;9.13;100.00;101348.72;5278055;28;24116;-78
2022/03/13 01:39:39;;;;;;;11.52;7.93;;;;;;;9.06;100.00;101345.69;5281898;28;20079;-78
2022/03/13 01:42:10;;;;;;;11.82;7.95;;;;;;;8.92;100.00;101325.50;5280155;28;20029;-78
2022/03/13 01:44:42;;;;;;;9.15;7.50;;;;;;;8.93;100.00;101332.53;5281192;28;20028;-78
2022/03/13 01:47:13;;;;;;;9.63;7.28;;;;;;;8.87;100.00;101332.97;5280363;28;20355;-78
2022/03/13 01:49:46;;;;;;;9.95;7.35;;;;;;;8.81;100.00;101336.13;5281776;28;20362;-78
2022/03/13 01:52:24;;;;;;;7.97;7.10;;;;;;;8.81;100.00;101329.00;5263519;28;20119;-78
2022/03/13 01:54:57;;;;;;;9.35;7.03;;;;;;;8.75;100.00;101312.66;5281158;28;20028;-78
2022/03/13 01:57:28;;;;;;;9.45;6.60;;;;;;;8.69;100.00;101316.66;5280002;28;20340;-78
2022/03/13 02:00:00;;;;;;;8.88;6.65;;;;;;;8.67;100.00;101318.59;5281613;28;20481;-79
2022/03/13 02:02:33;;;;;;;10.45;6.90;;;;;;;8.62;100.00;101318.09;5281632;28;20380;-78
2022/03/13 02:05:05;;;;;;;8.43;7.03;;;;;;;8.60;100.00;101320.03;5262858;28;20111;-78
2022/03/13 02:07:36;;;;;;;8.27;6.80;;;;;;;8.51;100.00;101301.16;5280284;28;20112;-78
2022/03/13 02:10:08;;;;;;;8.93;7.25;;;;;;;8.59;100.00;101313.88;5280983;28;20024;-78
2022/03/13 02:12:41;;;;;;;9.27;6.75;;;;;;;8.61;100.00;101311.94;5262552;28;20147;-78
2022/03/13 02:15:12;;;;;;;11.05;6.40;;;;;;;8.64;100.00;101313.50;5280895;28;20033;-78
2022/03/13 02:17:44;;;;;;;8.93;6.32;;;;;;;8.66;100.00;101308.91;5261821;28;20076;-78
2022/03/13 02:20:22;;;;;;;7.75;6.18;;;;;;;8.64;100.00;101303.72;5279701;28;20063;-78
2022/03/13 02:23:01;;;;;;;7.70;5.93;;;;;;;8.63;100.00;101303.84;5280554;28;20025;-78
2022/03/13 02:25:34;;;;;;;9.90;7.35;;;;;;;8.65;100.00;101310.72;5261852;28;20037;-78
2022/03/13 02:28:06;;;;;;;8.05;6.28;;;;;;;8.64;100.00;101316.16;5280085;28;20029;-78
2022/03/13 02:30:37;;;;;;;11.50;7.38;;;;;;;8.62;100.00;101318.94;5281330;28;20106;-78
2022/03/13 02:33:08;;;;;;;12.93;8.23;;;;;;;8.64;100.00;101319.69;5280943;28;20091;-78
2022/03/13 02:35:40;;;;;;;9.05;7.43;;;;;;;8.66;100.00;101323.06;5280797;28;20028;-78
2022/03/13 02:38:11;;;;;;;10.05;7.97;;;;;;;8.72;100.00;101318.25;5279898;28;20044;-78
2022/03/13 02:40:42;;;;;;;10.23;8.07;;;;;;;8.71;100.00;101309.41;5278350;28;20047;-78
2022/03/13 02:43:15;;;;;;;10.98;8.90;;;;;;;8.74;100.00;101311.81;5278901;28;20388;-78
2022/03/13 02:45:47;;;;;;;11.70;8.73;;;;;;;8.76;100.00;101309.88;5280691;28;20025;-78
2022/03/13 02:48:19;;;;;;;11.73;9.13;;;;;;;8.74;100.00;101308.31;5279689;28;20025;-78
2022/03/13 02:50:50;;;;;;;10.70;8.65;;;;;;;8.76;100.00;101311.72;5277597;28;20032;-78
2022/03/13 02:53:22;;;;;;;11.15;9.35;;;;;;;8.76;100.00;101298.41;5279976;28;20017;-78
2022/03/13 02:55:53;;;;;;;12.13;9.43;;;;;;;8.77;100.00;101308.09;5260984;28;20017;-78
2022/03/13 02:58:25;;;;;;;12.95;10.30;;;;;;;8.77;100.00;101303.63;5279025;28;20096;-79
2022/03/13 03:00:56;;;;;;;12.95;10.32;;;;;;;8.73;100.00;101298.63;5262526;28;20010;-79
2022/03/13 03:03:27;;;;;;;15.60;10.38;;;;;;;8.72;100.00;101303.13;5277764;28;20512;-78
2022/03/13 03:05:59;;;;;;;18.02;10.75;;;;;;;8.70;100.00;101299.75;5280383;28;20450;-77
2022/03/13 03:08:31;;;;;;;12.95;9.90;;;;;;;8.73;100.00;101294.19;5280096;28;20029;-77
2022/03/13 03:11:02;;;;;;;14.05;10.45;;;;;;;8.70;100.00;101286.44;5282673;28;20036;-79
2022/03/13 03:13:34;;;;;;;14.75;10.60;;;;;;;8.71;100.00;101288.13;5281489;28;20016;-78
2022/03/13 03:16:05;;;;;;;14.02;10.95;;;;;;;8.68;100.00;101286.56;5262851;28;20029;-78
2022/03/13 03:18:36;;;;;;;16.13;11.82;;;;;;;8.70;100.00;101286.44;5276393;28;20078;-78
2022/03/13 03:21:08;;;;;;;13.75;11.57;;;;;;;8.62;100.00;101279.03;5278414;28;20033;-78
2022/03/13 03:23:40;;;;;;;15.43;12.02;;;;;;;8.63;100.00;101294.03;5279724;28;20025;-78
2022/03/13 03:26:11;;;;;;;13.25;11.38;;;;;;;8.56;100.00;101287.50;5277216;28;20116;-78
2022/03/13 03:28:43;;;;;;;14.30;11.95;;;;;;;8.55;100.00;101283.13;5278939;28;20020;-78
2022/03/13 03:31:14;;;;;;;19.33;12.05;;;;;;;8.54;100.00;101281.47;5280101;28;33147;-78
2022/03/13 03:33:45;;;;;;;17.77;12.43;;;;;;;8.54;100.00;101276.16;5278122;28;20029;-78
2022/03/13 03:36:16;;;;;;;12.73;11.15;;;;;;;8.52;100.00;101276.25;5279754;28;20631;-79
2022/03/13 03:38:48;;;;;;;14.10;11.65;;;;;;;8.51;100.00;101282.53;5263334;28;20523;-78
2022/03/13 03:41:19;;;;;;;18.67;12.77;;;;;;;8.50;100.00;101280.00;5278030;28;20032;-78
2022/03/13 03:43:51;;;;;;;14.70;11.95;;;;;;;8.50;100.00;101287.97;5280012;28;20017;-78
2022/03/13 03:46:23;;;;;;;15.63;12.25;;;;;;;8.50;100.00;101280.00;5260155;28;20056;-79
2022/03/13 03:48:54;;;;;;;15.52;12.27;;;;;;;8.49;100.00;101287.13;5261647;28;20112;-79
2022/03/13 03:51:25;;;;;;;18.90;12.15;;;;;;;8.49;100.00;101281.81;5262467;28;20029;-78
2022/03/13 03:53:57;;;;;;;16.80;12.43;;;;;;;8.49;100.00;101275.66;5279780;28;20549;-78
2022/03/13 03:56:28;;;;;;;16.88;12.25;;;;;;;8.48;100.00;101282.75;5278516;28;20036;-78
2022/03/13 03:59:00;;;;;;;14.77;13.05;;;;;;;8.49;100.00;101267.69;5279512;28;20404;-78
2022/03/13 04:01:39;;;;;;;15.18;12.88;;;;;;;8.51;100.00;101279.03;5280770;28;20028;-79
2022/03/13 04:04:11;;;;;;;14.95;12.25;;;;;;;8.47;100.00;101277.59;5279438;28;20084;-79
2022/03/13 04:06:43;;;;;;;16.73;13.73;;;;;;;8.45;100.00;101272.38;5277824;28;20108;-79
2022/03/13 04:09:14;;;;;;;16.80;14.18;;;;;;;8.44;100.00;101268.03;5280286;28;20031;-79
2022/03/13 04:11:46;;;;;;;17.92;14.20;;;;;;;8.37;100.00;101255.31;5282829;28;20079;-79
2022/03/13 04:14:20;;;;;;;20.60;15.63;;;;;;;8.40;100.00;101261.22;5263769;28;20074;-79
2022/03/13 04:16:52;;;;;;;19.00;15.52;;;;;;;8.40;100.00;101265.72;5280482;28;20033;-79
2022/03/13 04:19:26;;;;;;;18.05;15.48;;;;;;;8.39;100.00;101266.66;5265368;28;20017;-79
2022/03/13 04:21:57;;;;;;;19.00;14.93;;;;;;;8.39;100.00;101274.63;5281543;28;20040;-78
2022/03/13 04:24:32;;;;;;;21.65;15.95;;;;;;;8.36;100.00;101266.88;5264898;28;20382;-79
2022/03/13 04:27:03;;;;;;;20.60;15.80;;;;;;;8.28;100.00;101263.00;5279996;28;20049;-79
2022/03/13 04:29:35;;;;;;;21.92;16.50;;;;;;;8.20;100.00;101273.38;5283370;28;20056;-79
2022/03/13 04:32:08;;;;;;;22.55;17.63;;;;;;;8.11;100.00;101268.75;5283563;28;20448;-80
2022/03/13 04:34:39;;;;;;;21.95;17.25;;;;;;;7.91;100.00;101252.50;5282910;28;20426;-80
2022/03/13 04:37:11;;;;;;;20.75;17.10;;;;;;;7.81;100.00;101267.44;5282375;28;20091;-81
2022/03/13 04:39:43;;;;;;;23.20;18.55;;;;;;;7.66;100.00;101272.09;5283463;28;20308;-81
2022/03/13 04:42:14;;;;;;;23.98;19.42;;;;;;;7.50;100.00;101267.06;5282798;28;20104;-81
2022/03/13 04:44:46;;;;;;;23.58;18.63;;;;;;;7.41;100.00;101265.06;5282945;28;20037;-81
2022/03/13 04:47:17;;;;;;;23.75;18.30;;;;;;;7.27;100.00;101257.25;5264555;28;20049;-81
2022/03/13 04:49:48;;;;;;;23.05;19.08;;;;;;;7.27;100.00;101275.81;5283183;28;20029;-81
2022/03/13 04:52:19;;;;;;;24.42;19.73;;;;;;;7.20;100.00;101278.06;5279529;28;20037;-81
2022/03/13 04:54:51;;;;;;;25.65;19.92;;;;;;;7.14;100.00;101274.06;5283820;28;20359;-80
2022/03/13 04:57:22;;;;;;;29.23;19.58;;;;;;;7.07;100.00;101267.50;5276844;28;20075;-80
2022/03/13 04:59:54;;;;;;;23.80;19.52;;;;;;;7.08;100.00;101277.16;5274718;28;20220;-80
2022/03/13 05:02:25;;;;;;;28.63;21.23;;;;;;;7.05;100.00;101272.06;5280154;28;20029;-80
2022/03/13 05:04:58;;;;;;;28.58;20.33;;;;;;;7.00;100.00;101274.19;5262201;28;20032;-80
2022/03/13 05:07:30;;;;;;;26.13;20.20;;;;;;;6.96;100.00;101270.03;5277593;28;20087;-80
2022/03/13 05:10:01;;;;;;;29.25;20.67;;;;;;;6.96;100.00;101265.59;5260568;28;20017;-80
2022/03/13 05:12:32;;;;;;;27.83;20.00;;;;;;;6.96;100.00;101270.91;5276361;28;20060;-80
2022/03/13 05:15:04;;;;;;;23.95;19.50;;;;;;;6.94;100.00;101270.19;5278185;28;20025;-80
2022/03/13 05:17:36;;;;;;;28.35;19.27;;;;;;;6.88;100.00;101257.34;5258448;28;20056;-80
2022/03/13 05:20:08;;;;;;;28.10;20.50;;;;;;;6.91;100.00;101264.25;5281757;28;20059;-80
2022/03/13 05:22:39;;;;;;;24.23;20.13;;;;;;;6.94;100.00;101256.91;5279886;28;20051;-79
2022/03/13 05:25:10;;;;;;;27.13;19.40;;;;;;;6.93;100.00;101260.50;5274169;28;20028;-80
2022/03/13 05:27:41;;;;;;;26.33;20.40;;;;;;;6.89;100.00;101259.03;5280235;28;20359;-80
2022/03/13 05:30:13;;;;;;;24.52;18.92;;;;;;;6.94;100.00;101267.53;5278852;28;20049;-79
2022/03/13 05:32:44;;;;;;;24.52;18.08;;;;;;;6.95;100.00;101263.06;5278463;28;20450;-79
2022/03/13 05:35:16;;;;;;;25.67;18.10;;;;;;;6.97;100.00;101274.41;5279374;28;20433;-80
2022/03/13 05:37:48;;;;;;;22.65;18.38;;;;;;;6.96;100.00;101256.78;5274075;28;20095;-80
2022/03/13 05:40:21;;;;;;;24.67;18.65;;;;;;;7.02;100.00;101260.81;5276090;28;20036;-79
2022/03/13 05:42:56;;;;;;;22.92;17.45;;;;;;;7.08;100.00;101265.69;5279740;28;20032;-79
2022/03/13 05:45:28;;;;;;;25.30;18.23;;;;;;;7.10;100.00;101261.97;5279976;28;20031;-79
2022/03/13 05:48:07;;;;;;;21.17;17.48;;;;;;;7.11;100.00;101265.47;5282320;28;20032;-79
2022/03/13 05:50:39;;;;;;;25.73;18.33;;;;;;;7.13;100.00;101268.84;5281963;28;20028;-79
2022/03/13 05:53:10;;;;;;;20.25;16.38;;;;;;;7.15;100.00;101266.94;5262234;28;20025;-79
2022/03/13 05:55:42;;;;;;;24.45;17.85;;;;;;;7.19;100.00;101274.56;5279540;28;20792;-80
2022/03/13 05:58:13;;;;;;;24.08;17.75;;;;;;;7.15;100.00;101272.25;5280574;28;20142;-79
2022/03/13 06:01:00;;;;;;;23.33;17.73;;;;;;;7.19;100.00;101276.38;5263158;28;20017;-79
2022/03/13 06:03:33;;;;;;;20.13;16.00;;;;;;;7.18;100.00;101266.72;5278984;28;20056;-79
2022/03/13 06:06:05;;;;;;;22.05;16.45;;;;;;;7.18;100.00;101272.88;5281696;28;20104;-79
2022/03/13 06:08:36;;;;;;;21.65;16.70;;;;;;;7.22;100.00;101270.84;5280596;28;20104;-79
2022/03/13 06:11:08;;;;;;;21.83;16.90;;;;;;;7.21;100.00;101277.13;5281444;28;20054;-79
2022/03/13 06:13:39;;;;;;;21.50;16.88;;;;;;;7.20;100.00;101264.81;5280250;28;20028;-79
2022/03/13 06:16:10;;;;;;;20.05;16.70;;;;;;;7.20;100.00;101275.41;5282050;28;20430;-79
2022/03/13 06:18:42;;;;;;;21.80;16.27;;;;;;;7.21;100.00;101273.63;5280711;28;20426;-79
2022/03/13 06:21:14;;;;;;;25.00;16.02;;;;;;;7.15;100.00;101270.47;5281455;28;20108;-79
2022/03/13 06:23:45;;;;;;;23.05;16.02;;;;;;;7.15;100.00;101275.75;5280931;28;20013;-79
2022/03/13 06:26:16;;;;;;;21.10;16.15;;;;;;;7.16;100.00;101271.28;5262706;28;20465;-79
2022/03/13 06:28:48;;;;;;;20.98;15.90;;;;;;;7.19;100.00;101271.09;5280349;28;20082;-79
2022/03/13 06:31:19;;;;;;;20.88;14.85;;;;;;;7.26;100.00;101279.41;5281807;28;20477;-79
2022/03/13 06:33:51;;;;;;;22.48;16.13;;;;;;;7.30;100.00;101275.63;5280060;28;20078;-78
2022/03/13 06:36:23;;;;;;;18.70;15.13;;;;;;;7.32;100.00;101273.69;5280143;28;28842;-78
2022/03/13 06:38:55;;;;;;;21.80;15.95;;;;;;;7.36;100.00;101280.47;5280820;28;20470;-79
2022/03/13 06:41:27;;;;;;;19.52;15.23;;;;;;;7.40;100.00;101287.25;5280080;28;20021;-79
2022/03/13 06:43:58;;;;;;;19.10;14.57;;;;;;;7.44;100.00;101279.91;5279683;28;20033;-78
2022/03/13 06:46:29;;;;;;;21.58;15.60;;;;;;;7.44;100.00;101258.69;5280506;28;20351;-78
2022/03/13 06:49:05;;;;;;;19.88;16.13;;;;;;;7.55;100.00;101272.84;5280958;28;20116;-78
2022/03/13 06:51:40;;;;;;;19.65;14.98;;;;;;;7.64;100.00;101271.31;5280036;28;20548;-79
2022/03/13 06:54:11;;;;;;;24.30;16.20;;;;;;;7.69;100.00;101265.69;5278631;28;20071;-78
2022/03/13 06:56:43;;;;;;;22.35;15.02;;;;;;;7.74;100.00;101269.69;5261504;28;20037;-78
2022/03/13 06:59:15;;;;;;;21.73;15.60;;;;;;;7.78;100.00;101277.44;5281317;28;20335;-78
2022/03/13 07:01:46;;;;;;;21.00;15.02;;;;;;;7.83;100.00;101284.09;5279508;28;20075;-78
2022/03/13 07:04:17;;;;;;;19.65;13.95;;;;;;;7.86;100.00;101278.56;5276505;28;20461;-79
2022/03/13 07:06:49;;;;;;;20.42;15.05;;;;;;;7.90;100.00;101276.53;5280849;28;20103;-78
2022/03/13 07:09:20;;;;;;;18.85;15.07;;;;;;;7.92;100.00;101269.28;5281147;28;20090;-78
2022/03/13 07:11:52;;;;;;;19.50;14.40;;;;;;;7.93;100.00;101266.53;5279554;28;20028;-78
2022/03/13 07:14:24;;;;;;;20.98;14.07;;;;;;;7.95;100.00;101264.59;5279176;28;20034;-78
2022/03/13 07:16:55;;;;;;;20.80;14.82;;;;;;;8.03;100.00;101274.66;5280705;28;20538;-78
2022/03/13 07:19:27;;;;;;;19.75;16.05;;;;;;;8.06;100.00;101276.22;5280729;28;20028;-79
2022/03/13 07:21:58;;;;;;;20.45;14.93;;;;;;;8.01;100.00;101270.41;5280447;28;20112;-79
2022/03/13 07:24:29;;;;;;;17.45;14.30;;;;;;;8.00;100.00;101276.69;5280049;28;20033;-79
2022/03/13 07:27:01;;;;;;;21.50;15.07;;;;;;;7.97;100.00;101271.59;5279611;28;20048;-79
2022/03/13 07:29:32;;;;;;;18.85;14.45;;;;;;;8.00;100.00;101264.25;5280234;28;20036;-79
2022/03/13 07:32:04;;;;;;;23.27;15.18;;;;;;;8.10;100.00;101264.41;5272729;28;20243;-79
2022/03/13 07:34:35;;;;;;;19.35;14.07;;;;;;;8.22;100.00;101268.81;5277129;28;20025;-79
2022/03/13 07:37:10;;;;;;;19.40;15.43;;;;;;;8.30;100.00;101258.41;5261224;28;20518;-79
2022/03/13 07:39:41;;;;;;;18.73;14.32;;;;;;;8.51;100.00;101268.41;5280531;28;20025;-79
2022/03/13 07:42:14;;;;;;;23.77;14.73;;;;;;;8.62;100.00;101259.59;5280881;28;20494;-79
2022/03/13 07:44:45;;;;;;;20.27;14.38;;;;;;;8.71;100.00;101264.19;5279078;28;20412;-79
2022/03/13 07:47:16;;;;;;;19.05;14.38;;;;;;;8.85;100.00;101260.44;5280495;28;20025;-79
2022/03/13 07:49:48;;;;;;;17.55;14.38;;;;;;;9.02;100.00;101249.31;5265565;28;20029;-79
2022/03/13 07:52:19;;;;;;;18.17;14.40;;;;;;;9.13;100.00;101261.75;5280220;28;20067;-78
2022/03/13 07:54:51;;;;;;;18.00;13.95;;;;;;;9.16;100.00;101263.34;5264776;28;20159;-79
2022/03/13 07:57:22;;;;;;;24.17;14.52;;;;;;;9.22;100.00;101260.16;5263047;28;20041;-79
2022/03/13 07:59:53;;;;;;;22.70;15.27;;;;;;;9.31;100.00;101259.44;5281981;28;20021;-79
2022/03/13 08:02:25;;;;;;;18.90;14.35;;;;;;;9.44;100.00;101268.13;5282602;28;20031;-79
2022/03/13 08:04:56;;;;;;;19.23;14.30;;;;;;;9.53;100.00;101265.69;5263561;28;20095;-79
2022/03/13 08:07:27;;;;;;;23.27;15.35;;;;;;;9.67;100.00;101257.41;5263320;28;20308;-79
2022/03/13 08:09:59;;;;;;;19.42;14.80;;;;;;;9.82;100.00;101260.63;5264210;28;20036;-79
2022/03/13 08:12:30;;;;;;;17.50;13.55;;;;;;;10.05;100.00;101263.19;5264097;28;20144;-79
2022/03/13 08:15:01;;;;;;;19.10;14.50;;;;;;;10.25;100.00;101261.50;5264687;28;20040;-79
2022/03/13 08:17:34;;;;;;;19.27;14.45;;;;;;;10.49;100.00;101263.94;5282376;28;20051;-79
2022/03/13 08:20:06;;;;;;;22.85;15.07;;;;;;;10.62;100.00;101251.22;5282468;28;20483;-79
2022/03/13 08:22:38;;;;;;;17.15;13.90;;;;;;;10.66;100.00;101260.66;5279597;28;20025;-79
2022/03/13 08:25:11;;;;;;;19.58;14.43;;;;;;;10.70;100.00;101267.41;5282279;28;20039;-79
2022/03/13 08:27:42;;;;;;;17.98;14.20;;;;;;;10.73;100.00;101256.47;5263252;28;20021;-79
2022/03/13 08:30:14;;;;;;;19.13;14.18;;;;;;;10.89;100.00;101265.81;5281955;28;20021;-79
2022/03/13 08:32:45;;;;;;;17.80;13.55;;;;;;;11.25;100.00;101263.53;5280296;28;20489;-79
2022/03/13 08:35:17;;;;;;;18.00;13.75;;;;;;;12.06;100.00;101263.38;5280266;28;20029;-79
2022/03/13 08:37:49;;;;;;;17.40;14.60;;;;;;;12.50;100.00;101263.75;5278115;28;20052;-79
2022/03/13 08:40:20;;;;;;;17.33;14.48;;;;;;;12.62;99.76;101251.00;5262847;28;20037;-79
2022/03/13 08:42:53;;;;;;;19.08;13.90;;;;;;;13.11;100.00;101265.03;5270680;28;20130;-79
2022/03/13 08:45:24;;;;;;;18.90;14.65;;;;;;;13.71;89.99;101261.91;5273850;28;20056;-79
2022/03/13 08:47:55;;;;;;;17.75;13.20;;;;;;;14.09;88.93;101251.81;5282109;28;20354;-79
2022/03/13 08:50:27;;;;;;;17.05;14.07;;;;;;;15.21;87.14;101258.19;5279886;28;20033;-79
2022/03/13 08:52:59;;;;;;;17.73;14.27;;;;;;;16.35;70.85;101253.97;5282418;28;20371;-79
2022/03/13 08:55:31;;;;;;;18.40;14.30;;;;;;;17.84;63.04;101252.31;5281494;28;20493;-79
2022/03/13 08:58:02;;;;;;;19.27;14.18;;;;;;;18.35;54.45;101251.75;5274248;28;20040;-79
2022/03/13 09:00:36;;;;;;;16.95;14.38;;;;;;;19.24;51.74;101249.06;5282232;28;20021;-79
2022/03/13 09:03:08;;;;;;;16.75;14.52;;;;;;;19.42;48.71;101245.97;5256063;28;20032;-78
2022/03/13 09:05:39;;;;;;;17.00;13.60;;;;;;;19.58;47.51;101249.44;5275340;28;20374;-78
2022/03/13 09:08:10;;;;;;;17.10;14.27;;;;;;;21.15;45.16;101237.50;5277172;28;20030;-79
2022/03/13 09:10:42;;;;;;;17.30;14.85;;;;;;;21.61;42.17;101242.25;5280202;28;20029;-79
2022/03/13 09:13:14;;;;;;;17.67;13.82;;;;;;;22.42;39.80;101243.13;5281977;28;20362;-80
2022/03/13 09:15:46;;;;;;;15.40;13.75;;;;;;;22.30;39.67;101232.09;5283515;28;20031;-80
2022/03/13 09:18:18;;;;;;;15.57;13.90;;;;;;;23.74;37.86;101237.41;5283294;28;20040;-80
2022/03/13 09:20:49;;;;;;;15.50;13.63;;;;;;;24.97;35.65;101233.09;5283106;28;20025;-79
2022/03/13 09:23:20;;;;;;;15.45;13.13;;;;;;;24.50;33.55;101227.31;5277412;28;20083;-80
2022/03/13 09:25:53;;;;;;;14.43;12.93;;;;;;;25.20;32.92;101226.94;5265674;28;20029;-79
2022/03/13 09:28:24;;;;;;;20.00;13.27;;;;;;;24.47;33.97;101225.84;5280712;28;20028;-80
2022/03/13 09:30:57;;;;;;;14.48;12.88;;;;;;;24.88;32.97;101234.50;5282132;28;20033;-79
2022/03/13 09:33:28;;;;;;;15.82;12.77;;;;;;;23.44;34.36;101234.41;5262355;28;20025;-80
2022/03/13 09:36:00;;;;;;;15.75;13.30;;;;;;;25.22;32.64;101223.97;5283211;28;20539;-79
2022/03/13 09:38:31;;;;;;;15.65;12.63;;;;;;;25.44;32.41;101232.53;5284065;28;20393;-79
2022/03/13 09:41:02;;;;;;;14.95;12.95;;;;;;;24.17;33.04;101233.91;5284959;28;20025;-80
2022/03/13 09:43:34;;;;;;;14.27;12.38;;;;;;;24.59;33.18;101222.44;5272983;28;20021;-80
2022/03/13 09:46:05;;;;;;;14.73;13.30;;;;;;;23.46;33.43;101245.91;5258534;28;20500;-79
2022/03/13 09:48:37;;;;;;;12.75;11.48;;;;;;;26.12;31.96;101228.53;5283921;28;20415;-80
2022/03/13 09:51:09;;;;;;;14.00;11.35;;;;;;;25.74;30.46;101228.94;5283305;28;20367;-80
2022/03/13 09:53:40;;;;;;;12.35;11.15;;;;;;;26.87;30.69;101224.19;5283136;28;20017;-79
2022/03/13 09:56:12;;;;;;;14.38;11.77;;;;;;;23.98;32.14;101233.03;5281066;28;20028;-80
2022/03/13 09:58:45;;;;;;;13.07;11.68;;;;;;;23.52;33.15;101231.44;5281006;28;20036;-80
2022/03/13 10:01:16;;;;;;;13.25;11.95;;;;;;;22.04;35.96;101227.47;5262618;28;20059;-79
2022/03/13 10:03:49;;;;;;;12.55;10.80;;;;;;;24.44;33.46;101211.84;5262452;28;20566;-79
2022/03/13 10:06:20;;;;;;;12.02;10.82;;;;;;;24.26;32.55;101221.66;5264236;28;20021;-79
2022/03/13 10:08:51;;;;;;;12.02;10.80;;;;;;;24.85;33.91;101221.28;5282623;28;20037;-79
2022/03/13 10:11:33;;;;;;;11.98;10.80;;;;;;;23.77;33.90;101216.00;5281655;28;20496;-79
2022/03/13 10:14:07;;;;;;;14.07;10.63;;;;;;;25.73;31.21;101211.69;5281025;28;20374;-79
2022/03/13 10:16:39;;;;;;;14.18;10.82;;;;;;;26.45;30.12;101209.84;5273421;28;20037;-79
2022/03/13 10:19:15;;;;;;;12.07;10.40;;;;;;;25.95;30.77;101208.44;5256673;28;20098;-79
2022/03/13 10:22:07;;;;;;;10.93;9.70;;;;;;;26.96;29.37;101198.13;5278800;28;20143;-79
2022/03/13 10:24:41;;;;;;;13.45;10.80;;;;;;;26.24;30.67;101192.97;5279889;28;20438;-79
2022/03/13 10:27:18;;;;;;;10.75;9.65;;;;;;;27.59;29.20;101205.59;5281957;28;20647;-79
2022/03/13 10:29:49;;;;;;;12.95;11.48;;;;;;;26.20;29.21;101194.53;5282325;28;20462;-79
2022/03/13 10:32:21;;;;;;;11.13;10.13;;;;;;;27.22;28.75;101198.59;5275456;28;20025;-79
2022/03/13 10:34:57;;;;;;;11.68;10.45;;;;;;;27.96;27.39;101192.25;5277264;28;20024;-80
2022/03/13 10:37:38;;;;;;;;;;;;;;;29.15;26.46;101189.16;5282261;28;20067;-79
2022/03/13 10:40:22;;;;;;;10.40;9.02;;;;;;;28.48;28.29;101186.41;5282450;28;19978;-79
2022/03/13 10:42:54;;;;;;;11.50;10.27;;;;;;;28.18;26.96;101183.28;5281881;28;20066;-79
2022/03/13 10:45:53;;;;;;;11.02;9.63;;;;;;;28.00;27.75;101190.69;5281683;28;20029;-78
2022/03/13 10:48:32;;;;;;;9.32;8.43;;;;;;;27.09;27.91;101186.03;5259371;28;20037;-78
2022/03/13 10:51:07;;;;;;;10.45;8.75;;;;;;;27.20;28.00;101186.25;5261267;28;20024;-79
2022/03/13 10:53:39;;;;;;;8.68;7.88;;;;;;;27.03;27.67;101178.81;5227186;28;20026;-79
2022/03/13 10:56:14;;;;;;;10.27;9.27;;;;;;;26.15;28.31;101175.28;5261311;28;20021;-79
2022/03/13 10:58:47;;;;;;;9.85;8.93;;;;;;;24.29;30.36;101177.63;5266284;28;20105;-79
2022/03/13 11:01:21;;;;;;;10.32;9.23;;;;;;;21.94;34.14;101179.00;5261875;28;20033;-79
2022/03/13 11:04:06;;;;;;;11.38;9.85;;;;;;;20.79;36.37;101187.06;5273651;28;20439;-79
2022/03/13 11:06:37;;;;;;;10.50;9.38;;;;;;;21.33;36.79;101169.09;5260514;28;20374;-79
2022/03/13 11:09:09;;;;;;;10.27;9.38;;;;;;;22.60;35.18;101179.97;5261025;28;20044;-79
2022/03/13 11:11:41;;;;;;;10.60;9.57;;;;;;;22.39;34.37;101164.78;5280605;28;20025;-79
2022/03/13 11:14:14;;;;;;;14.57;9.65;;;;;;;25.49;31.68;101145.28;5263399;28;20041;-79
2022/03/13 11:16:46;;;;;;;10.35;9.10;;;;;;;27.40;28.96;101166.63;5285207;28;20028;-79
2022/03/13 11:19:17;;;;;;;9.00;8.13;;;;;;;26.51;29.27;101162.41;5285017;28;20032;-79
2022/03/13 11:21:49;;;;;;;8.93;8.03;;;;;;;25.87;29.07;101157.66;5263998;28;20119;-79
2022/03/13 11:24:23;;;;;;;10.10;8.57;;;;;;;25.33;30.93;101160.41;5264643;28;20279;-79
2022/03/13 11:26:54;;;;;;;10.27;9.13;;;;;;;26.62;29.85;101158.03;5268610;28;20408;-79
2022/03/13 11:29:46;;;;;;;9.98;8.90;;;;;;;28.33;27.58;101153.31;5285684;28;20029;-79
2022/03/13 11:32:31;;;;;;;13.55;9.77;;;;;;;26.93;28.37;101152.09;5277522;28;20022;-80
2022/03/13 11:35:11;;;;;;;9.70;8.73;;;;;;;29.15;26.74;101150.72;5264383;28;20378;-79
2022/03/13 11:37:50;;;;;;;10.05;9.05;;;;;;;30.62;24.27;101154.84;5275458;28;20517;-79